x

Santa Monica Basin - 33nm Wsw Of Santa Monica, Ca (46025) Wave Buoy

3:50 - Thu 21st Aug 2014 All times are PDT. -7 hours from GMT.

  • Sig Wave height 2.6ft
  • Swell Direction
  • Peak Period 14s
  • Average Period 5s
  • Wind
    2mph, 4mph gusts
  • Sea Temp 72°f
  • Aire Temp 67°f
  • Sea Pressure 1013mb
  • Santa Monica Basin - 33nm Wsw Of Santa Monica, Ca
  • Santa Monica Basin - 33nm Wsw Of Santa Monica, Ca

More Historic Weather Station data

Upgrade to MSW Pro to gain access to the past 30 days of data for over 8000 Wavebouys and Weather Stations around the globe.

Join Pro

Comparision Forecast

View Surf forecast
   
jue 08/21 3:50 2.5ft 14s 5s 2 4 mph 1013mb 72f 67f
2:50 2.5ft 15s 5s 2 4 mph 1013.1mb 72f 67f
1:50 2.5ft 14s 6s 2 4 mph 1013mb 72f 66f
12:50 2.5ft 14s 6s 4
mph
1013.3mb 72f 66f
mié 08/20 11:50 2.5ft 15s 5s 7
mph
1013mb 72f 66f
10:50 2.5ft 13s 5s 7 9 mph 1013mb 72f 67f
9:50 2.5ft 15s 5s 11 13 mph 1012.9mb 72f 67f
8:50 2.5ft 14s 5s 11 13 mph 1012.2mb 72f 68f
7:50 2.5ft 15s 5s 11 13 mph 1012mb 72f 68f
6:50 2.5ft 15s 5s 11 13 mph 1011.7mb 73f 68f
5:50 2.5ft 14s 5s 11 16 mph 1012.1mb 73f 68f
4:50 2ft 14s 5s 11 13 mph 1012.2mb 73f 68f
3:50 2.5ft 14s 6s 11 13 mph 1012.3mb 73f 69f
2:50 2.5ft 15s 7s 9
mph
1012.8mb 73f 69f
1:50 2.5ft 14s 6s 7
mph
1013.5mb 73f 68f
12:50 2.5ft 14s 6s 2 4 mph 1013.7mb 73f 70f
11:50 2.5ft 15s 6s 4
mph
1013.9mb 72f 70f
10:50 2.5ft 15s 6s 4 7 mph 1013.9mb 72f 69f
9:50 2.5ft 15s 6s 9 11 mph 1013.8mb 72f 67f
8:50 2.5ft 15s 6s 4 7 mph 1013.2mb 72f 68f
7:50 2.5ft 15s 6s 7
mph
1012.8mb 72f 67f
6:50 2.5ft 15s 6s 4 9 mph 1012.6mb 72f 68f
4:50 3ft 15s 7s 4 7 mph 1011.9mb 71f 68f
3:50 2.5ft 15s 6s 2 4 mph 1011.7mb 71f 67f
2:50 2.5ft 14s 6s 7 9 mph 1011.6mb 71f 67f
1:50 2.5ft 15s 6s 4 7 mph 1011.7mb 71f 68f
12:50 2.5ft 15s 6s 4 7 mph 1011.8mb 71f 68f
mar 08/19 11:50 2.5ft 14s 7s 7 9 mph 1011.5mb 71f 67f
10:50 2.5ft 15s 7s 7 11 mph 1011.4mb 71f 67f
9:50 2.5ft 15s 7s 4 9 mph 1011.5mb 71f 67f
8:50 2.5ft 15s 7s 2 7 mph 1011mb 71f 66f
7:50 2.5ft 15s 7s 2 4 mph 1010.6mb 71f 66f
6:50 2.5ft 15s 6s 2 4 mph 1010.3mb 71f 66f
5:50 2.5ft 15s 6s 4 7 mph 1010.3mb 71f 66f
4:50 2.5ft 15s 7s 7
mph
1010.4mb 72f 66f
3:50 2.5ft 15s 7s 7 9 mph 1010.8mb 72f 66f
2:50 2.5ft 15s 6s 7 11 mph 1011.4mb 72f 66f
1:50 3ft 15s 6s 7 9 mph 1011.9mb 73f 67f
12:50 2.5ft 15s 6s 7 11 mph 1012mb 72f 67f
11:50 2.5ft 15s 6s 7 9 mph 1012.5mb 72f 67f
10:50 2.5ft 14s 5s 9 11 mph 1012.5mb 71f 67f
9:50 2.5ft 15s 6s 11 13 mph 1012.1mb 71f 66f
8:50 2.5ft 16s 6s 9 11 mph 1011.9mb 71f 66f
7:50 2.5ft 16s 6s 9 11 mph 1011.2mb 70f 66f
6:50 3ft 16s 6s 9
mph
1010.8mb 70f 66f
5:50 3ft 16s 6s 9 11 mph 1010.8mb 70f 66f
4:50 3ft 14s 6s 9 11 mph 1010.6mb 70f 66f
3:50 3.5ft 16s 6s 9 11 mph 1010.6mb 70f 67f
2:50 3.5ft 15s 6s 9 11 mph 1010.6mb 70f 67f
1:50 3.5ft 6s 5s 11 13 mph 1010.4mb 70f 66f
12:50 3.5ft 6s 5s 7 9 mph 1010.7mb 70f 66f
lun 08/18 11:50 4ft 6s 5s 9 11 mph 1010.6mb 70f 67f
10:50 4ft 15s 5s 4 7 mph 1010.3mb 70f 67f
9:50 4.5ft 6s 5s 2 4 mph 1010.4mb 71f 67f
7:50 3.5ft 13s 5s 9 11 mph 1009mb 71f 66f
6:50 3.5ft 16s 6s 13 18 mph 1008.4mb 71f 69f
5:50 3ft 16s 6s 13 16 mph 1008.5mb 72f 68f
4:50 3ft 16s 6s 13
mph
1008.9mb 72f 68f
3:50 3ft 16s 6s 11 13 mph 1009mb 72f 68f
2:50 3.5ft 16s 6s 7 9 mph 1009.6mb 72f 68f
1:50 3.5ft 6s 5s 4 7 mph 1010.3mb 72f 67f
12:50 3.5ft 16s 6s 4 7 mph 1010.8mb 71f 67f
10:50 3.5ft 16s 6s  -  2 mph 1011.5mb 71f 69f
9:50 3.5ft 16s 6s 4 7 mph 1011.7mb 70f 68f
8:50 4ft 7s 6s 7 9 mph 1011.4mb 70f 68f
7:50 4ft 15s 6s 4 7 mph 1011.3mb 70f 68f
6:50 4ft 7s 6s 7 9 mph 1010.5mb 70f 66f
5:50 3.5ft 7s 6s 4 7 mph 1010.3mb 70f 65f
4:50 4ft 7s 6s 4 7 mph 1010.3mb 70f 65f
3:50 4.5ft 7s 6s 4 7 mph 1010.5mb 70f 67f
2:50 4.5ft 7s 6s 4 7 mph 1010.6mb 71f 67f
1:50 4.5ft 7s 6s 2 4 mph 1010.7mb 70f 66f
12:50 4.5ft 7s 5s 9 11 mph 1010.9mb 70f 66f
dom 08/17 11:50 5ft 6s 6s 13 16 mph 1010.8mb 70f 66f
10:50 4.5ft 6s 5s 9 13 mph 1010.9mb 70f 66f
9:50 4.5ft 6s 5s 4 7 mph 1010.9mb 70f 66f
8:50 4.5ft 6s 5s 11 13 mph 1010.6mb 70f 67f
7:50 4.5ft 12s 5s 16 20 mph 1010.4mb 70f 67f
6:50 4.5ft 12s 5s 13 16 mph 1010.6mb 69f 68f
5:50 4ft 13s 5s 16 20 mph 1011mb 70f 69f
4:50 3.5ft 15s 5s 18 20 mph 1011.7mb 70f 68f
3:50 3.5ft 13s 6s 16 18 mph 1012.1mb 71f 68f
2:50 3.5ft 14s 5s 13 16 mph 1012.8mb 71f 68f
1:50 3.5ft 13s 5s 9 11 mph 1013.5mb 71f 68f
12:50 3.5ft 16s 6s 7 9 mph 1014.1mb 71f 68f
11:50 3.5ft 14s 5s 9
mph
1014.7mb 71f 67f